sensor_id;sensor_type;location;lat;lon;timestamp;temperature;humidity
68943;DHT22;60852;52.190;4.422;2022-08-16T00:02:16;21.31;79.66
68943;DHT22;60852;52.190;4.422;2022-08-16T00:04:42;21.30;79.84
68943;DHT22;60852;52.190;4.422;2022-08-16T00:07:07;21.28;80.07
68943;DHT22;60852;52.190;4.422;2022-08-16T00:09:33;21.30;79.74
68943;DHT22;60852;52.190;4.422;2022-08-16T00:11:59;21.31;79.77
68943;DHT22;60852;52.190;4.422;2022-08-16T00:14:29;21.31;79.90
68943;DHT22;60852;52.190;4.422;2022-08-16T00:16:55;21.30;80.02
68943;DHT22;60852;52.190;4.422;2022-08-16T00:19:27;21.34;79.72
68943;DHT22;60852;52.190;4.422;2022-08-16T00:21:54;21.32;79.91
68943;DHT22;60852;52.190;4.422;2022-08-16T00:24:22;21.35;79.85
68943;DHT22;60852;52.190;4.422;2022-08-16T00:26:47;21.38;79.64
68943;DHT22;60852;52.190;4.422;2022-08-16T00:29:15;21.38;79.69
68943;DHT22;60852;52.190;4.422;2022-08-16T00:31:42;21.37;79.70
68943;DHT22;60852;52.190;4.422;2022-08-16T00:34:08;21.39;79.82
68943;DHT22;60852;52.190;4.422;2022-08-16T00:36:34;21.41;79.68
68943;DHT22;60852;52.190;4.422;2022-08-16T00:38:59;21.42;79.64
68943;DHT22;60852;52.190;4.422;2022-08-16T00:41:27;21.38;79.67
68943;DHT22;60852;52.190;4.422;2022-08-16T00:43:53;21.41;79.87
68943;DHT22;60852;52.190;4.422;2022-08-16T00:46:32;21.41;79.89
68943;DHT22;60852;52.190;4.422;2022-08-16T00:48:58;21.35;79.96
68943;DHT22;60852;52.190;4.422;2022-08-16T00:51:26;21.32;80.39
68943;DHT22;60852;52.190;4.422;2022-08-16T00:53:53;21.32;80.43
68943;DHT22;60852;52.190;4.422;2022-08-16T00:56:24;21.20;80.59
68943;DHT22;60852;52.190;4.422;2022-08-16T00:58:51;21.15;80.88
68943;DHT22;60852;52.190;4.422;2022-08-16T01:01:18;21.08;80.91
68943;DHT22;60852;52.190;4.422;2022-08-16T01:03:48;21.08;81.01
68943;DHT22;60852;52.190;4.422;2022-08-16T01:06:16;21.15;81.00
68943;DHT22;60852;52.190;4.422;2022-08-16T01:08:47;21.18;81.03
68943;DHT22;60852;52.190;4.422;2022-08-16T01:11:13;21.25;80.41
68943;DHT22;60852;52.190;4.422;2022-08-16T01:13:40;21.25;80.41
68943;DHT22;60852;52.190;4.422;2022-08-16T01:16:12;21.27;80.26
68943;DHT22;60852;52.190;4.422;2022-08-16T01:18:44;21.31;80.17
68943;DHT22;60852;52.190;4.422;2022-08-16T01:24:14;21.35;79.80
68943;DHT22;60852;52.190;4.422;2022-08-16T01:26:45;21.32;79.75
68943;DHT22;60852;52.190;4.422;2022-08-16T01:29:17;21.28;79.80
68943;DHT22;60852;52.190;4.422;2022-08-16T01:31:44;21.30;79.87
68943;DHT22;60852;52.190;4.422;2022-08-16T01:34:11;21.30;80.07
68943;DHT22;60852;52.190;4.422;2022-08-16T01:36:37;21.30;80.02
68943;DHT22;60852;52.190;4.422;2022-08-16T01:39:09;21.31;80.07
68943;DHT22;60852;52.190;4.422;2022-08-16T01:41:35;21.24;80.25
68943;DHT22;60852;52.190;4.422;2022-08-16T01:44:01;21.25;80.33
68943;DHT22;60852;52.190;4.422;2022-08-16T01:46:44;21.23;80.39
68943;DHT22;60852;52.190;4.422;2022-08-16T01:49:15;21.25;80.44
68943;DHT22;60852;52.190;4.422;2022-08-16T01:51:45;21.25;80.42
68943;DHT22;60852;52.190;4.422;2022-08-16T01:54:11;21.27;80.24
68943;DHT22;60852;52.190;4.422;2022-08-16T01:56:37;21.25;80.22
68943;DHT22;60852;52.190;4.422;2022-08-16T01:59:06;21.25;80.28
68943;DHT22;60852;52.190;4.422;2022-08-16T02:01:33;21.24;80.35
68943;DHT22;60852;52.190;4.422;2022-08-16T02:03:59;21.21;80.45
68943;DHT22;60852;52.190;4.422;2022-08-16T02:06:25;21.21;80.46
68943;DHT22;60852;52.190;4.422;2022-08-16T02:08:51;21.12;80.45
68943;DHT22;60852;52.190;4.422;2022-08-16T02:11:17;21.04;80.47
68943;DHT22;60852;52.190;4.422;2022-08-16T02:13:43;20.98;80.60
68943;DHT22;60852;52.190;4.422;2022-08-16T02:16:10;20.97;80.75
68943;DHT22;60852;52.190;4.422;2022-08-16T02:18:35;20.96;80.79
68943;DHT22;60852;52.190;4.422;2022-08-16T02:21:03;20.98;80.86
68943;DHT22;60852;52.190;4.422;2022-08-16T02:23:31;20.97;81.02
68943;DHT22;60852;52.190;4.422;2022-08-16T02:25:57;20.96;80.87
68943;DHT22;60852;52.190;4.422;2022-08-16T02:28:24;20.96;80.98
68943;DHT22;60852;52.190;4.422;2022-08-16T02:30:51;20.90;80.92
68943;DHT22;60852;52.190;4.422;2022-08-16T02:33:19;20.91;81.03
68943;DHT22;60852;52.190;4.422;2022-08-16T02:35:44;20.91;81.11
68943;DHT22;60852;52.190;4.422;2022-08-16T02:38:10;20.88;81.09
68943;DHT22;60852;52.190;4.422;2022-08-16T02:40:35;20.90;81.14
68943;DHT22;60852;52.190;4.422;2022-08-16T02:43:01;20.83;81.06
68943;DHT22;60852;52.190;4.422;2022-08-16T02:45:26;20.84;81.05
68943;DHT22;60852;52.190;4.422;2022-08-16T02:47:53;20.80;81.16
68943;DHT22;60852;52.190;4.422;2022-08-16T02:50:19;20.75;81.34
68943;DHT22;60852;52.190;4.422;2022-08-16T02:52:45;20.73;81.37
68943;DHT22;60852;52.190;4.422;2022-08-16T02:55:11;20.69;81.46
68943;DHT22;60852;52.190;4.422;2022-08-16T02:57:37;20.62;81.45
68943;DHT22;60852;52.190;4.422;2022-08-16T03:00:07;20.53;81.70
68943;DHT22;60852;52.190;4.422;2022-08-16T03:02:34;20.43;81.97
68943;DHT22;60852;52.190;4.422;2022-08-16T03:05:01;20.28;82.35
68943;DHT22;60852;52.190;4.422;2022-08-16T03:07:26;20.25;82.55
68943;DHT22;60852;52.190;4.422;2022-08-16T03:09:52;20.25;82.36
68943;DHT22;60852;52.190;4.422;2022-08-16T03:12:17;20.15;82.55
68943;DHT22;60852;52.190;4.422;2022-08-16T03:14:44;20.14;82.61
68943;DHT22;60852;52.190;4.422;2022-08-16T03:17:09;20.17;82.59
68943;DHT22;60852;52.190;4.422;2022-08-16T03:19:35;20.15;82.38
68943;DHT22;60852;52.190;4.422;2022-08-16T03:22:02;20.21;82.16
68943;DHT22;60852;52.190;4.422;2022-08-16T03:24:27;20.25;81.78
68943;DHT22;60852;52.190;4.422;2022-08-16T03:26:54;20.25;81.74
68943;DHT22;60852;52.190;4.422;2022-08-16T03:29:20;20.30;81.60
68943;DHT22;60852;52.190;4.422;2022-08-16T03:31:45;20.29;81.31
68943;DHT22;60852;52.190;4.422;2022-08-16T03:34:11;20.21;81.61
68943;DHT22;60852;52.190;4.422;2022-08-16T03:36:36;20.12;82.00
68943;DHT22;60852;52.190;4.422;2022-08-16T03:39:02;20.08;82.15
68943;DHT22;60852;52.190;4.422;2022-08-16T03:41:27;20.15;82.09
68943;DHT22;60852;52.190;4.422;2022-08-16T03:43:53;20.12;81.70
68943;DHT22;60852;52.190;4.422;2022-08-16T03:46:20;20.11;81.76
68943;DHT22;60852;52.190;4.422;2022-08-16T03:48:46;20.15;81.57
68943;DHT22;60852;52.190;4.422;2022-08-16T03:51:13;20.19;81.35
68943;DHT22;60852;52.190;4.422;2022-08-16T03:53:40;20.22;81.17
68943;DHT22;60852;52.190;4.422;2022-08-16T03:56:07;20.26;80.92
68943;DHT22;60852;52.190;4.422;2022-08-16T03:58:33;20.29;80.79
68943;DHT22;60852;52.190;4.422;2022-08-16T04:00:59;20.26;80.67
68943;DHT22;60852;52.190;4.422;2022-08-16T04:03:24;20.29;80.72
68943;DHT22;60852;52.190;4.422;2022-08-16T04:05:51;20.25;80.54
68943;DHT22;60852;52.190;4.422;2022-08-16T04:08:18;20.22;80.58
68943;DHT22;60852;52.190;4.422;2022-08-16T04:10:46;20.24;80.80
68943;DHT22;60852;52.190;4.422;2022-08-16T04:13:11;20.19;80.66
68943;DHT22;60852;52.190;4.422;2022-08-16T04:15:37;20.18;80.61
68943;DHT22;60852;52.190;4.422;2022-08-16T04:18:04;20.19;80.82
68943;DHT22;60852;52.190;4.422;2022-08-16T04:20:31;20.15;80.74
68943;DHT22;60852;52.190;4.422;2022-08-16T04:22:56;20.15;80.66
68943;DHT22;60852;52.190;4.422;2022-08-16T04:25:22;20.15;80.62
68943;DHT22;60852;52.190;4.422;2022-08-16T04:27:48;20.17;80.23
68943;DHT22;60852;52.190;4.422;2022-08-16T04:30:16;20.14;80.31
68943;DHT22;60852;52.190;4.422;2022-08-16T04:32:43;20.07;80.50
68943;DHT22;60852;52.190;4.422;2022-08-16T04:35:13;19.99;80.64
68943;DHT22;60852;52.190;4.422;2022-08-16T04:37:41;19.98;80.85
68943;DHT22;60852;52.190;4.422;2022-08-16T04:40:07;19.94;81.01
68943;DHT22;60852;52.190;4.422;2022-08-16T04:42:35;19.92;81.09
68943;DHT22;60852;52.190;4.422;2022-08-16T04:45:05;19.99;80.81
68943;DHT22;60852;52.190;4.422;2022-08-16T04:47:31;20.01;80.59
68943;DHT22;60852;52.190;4.422;2022-08-16T04:49:58;20.08;80.26
68943;DHT22;60852;52.190;4.422;2022-08-16T04:52:24;20.11;80.35
68943;DHT22;60852;52.190;4.422;2022-08-16T04:54:49;20.15;80.12
68943;DHT22;60852;52.190;4.422;2022-08-16T04:57:14;20.22;79.96
68943;DHT22;60852;52.190;4.422;2022-08-16T04:59:40;20.28;79.76
68943;DHT22;60852;52.190;4.422;2022-08-16T05:02:06;20.46;79.23
68943;DHT22;60852;52.190;4.422;2022-08-16T05:04:31;20.76;78.38
68943;DHT22;60852;52.190;4.422;2022-08-16T05:06:57;21.00;77.55
68943;DHT22;60852;52.190;4.422;2022-08-16T05:09:22;21.23;76.40
68943;DHT22;60852;52.190;4.422;2022-08-16T05:11:48;21.32;75.97
68943;DHT22;60852;52.190;4.422;2022-08-16T05:14:14;21.42;75.55
68943;DHT22;60852;52.190;4.422;2022-08-16T05:16:39;21.51;75.44
68943;DHT22;60852;52.190;4.422;2022-08-16T05:19:06;21.69;74.84
68943;DHT22;60852;52.190;4.422;2022-08-16T05:21:32;21.90;74.12
68943;DHT22;60852;52.190;4.422;2022-08-16T05:23:58;22.23;72.89
68943;DHT22;60852;52.190;4.422;2022-08-16T05:26:27;22.29;72.57
68943;DHT22;60852;52.190;4.422;2022-08-16T05:28:52;22.04;73.06
68943;DHT22;60852;52.190;4.422;2022-08-16T05:31:18;21.82;74.22
68943;DHT22;60852;52.190;4.422;2022-08-16T05:33:44;21.48;75.52
68943;DHT22;60852;52.190;4.422;2022-08-16T05:36:09;21.37;76.03
68943;DHT22;60852;52.190;4.422;2022-08-16T05:38:35;21.23;76.50
68943;DHT22;60852;52.190;4.422;2022-08-16T05:41:02;21.18;76.88
68943;DHT22;60852;52.190;4.422;2022-08-16T05:43:28;21.18;77.19
68943;DHT22;60852;52.190;4.422;2022-08-16T05:45:56;21.23;77.24
68943;DHT22;60852;52.190;4.422;2022-08-16T05:48:23;21.15;77.31
68943;DHT22;60852;52.190;4.422;2022-08-16T05:50:48;21.15;77.76
68943;DHT22;60852;52.190;4.422;2022-08-16T05:53:13;21.10;78.29
68943;DHT22;60852;52.190;4.422;2022-08-16T05:55:39;21.03;78.63
68943;DHT22;60852;52.190;4.422;2022-08-16T05:58:05;20.94;79.09
68943;DHT22;60852;52.190;4.422;2022-08-16T06:00:30;20.88;79.66
68943;DHT22;60852;52.190;4.422;2022-08-16T06:02:55;20.87;80.01
68943;DHT22;60852;52.190;4.422;2022-08-16T06:05:22;20.91;80.65
68943;DHT22;60852;52.190;4.422;2022-08-16T06:07:48;21.00;80.31
68943;DHT22;60852;52.190;4.422;2022-08-16T06:10:15;21.21;80.18
68943;DHT22;60852;52.190;4.422;2022-08-16T06:12:41;21.27;79.99
68943;DHT22;60852;52.190;4.422;2022-08-16T06:15:15;21.44;79.98
68943;DHT22;60852;52.190;4.422;2022-08-16T06:17:42;21.59;79.26
68943;DHT22;60852;52.190;4.422;2022-08-16T06:20:08;21.52;79.58
68943;DHT22;60852;52.190;4.422;2022-08-16T06:22:36;21.56;79.97
68943;DHT22;60852;52.190;4.422;2022-08-16T06:25:02;21.66;79.91
68943;DHT22;60852;52.190;4.422;2022-08-16T06:27:27;21.63;80.19
68943;DHT22;60852;52.190;4.422;2022-08-16T06:29:53;21.67;80.43
68943;DHT22;60852;52.190;4.422;2022-08-16T06:32:18;21.82;80.40
68943;DHT22;60852;52.190;4.422;2022-08-16T06:34:44;21.88;80.43
68943;DHT22;60852;52.190;4.422;2022-08-16T06:37:09;21.96;80.21
68943;DHT22;60852;52.190;4.422;2022-08-16T06:39:35;22.16;80.02
68943;DHT22;60852;52.190;4.422;2022-08-16T06:42:00;22.34;79.58
68943;DHT22;60852;52.190;4.422;2022-08-16T06:44:26;22.47;79.51
68943;DHT22;60852;52.190;4.422;2022-08-16T06:46:51;22.60;79.01
68943;DHT22;60852;52.190;4.422;2022-08-16T06:49:17;22.71;78.62
68943;DHT22;60852;52.190;4.422;2022-08-16T06:51:42;22.64;78.67
68943;DHT22;60852;52.190;4.422;2022-08-16T06:54:08;22.78;78.99
68943;DHT22;60852;52.190;4.422;2022-08-16T06:56:35;22.87;78.57
68943;DHT22;60852;52.190;4.422;2022-08-16T06:59:01;22.84;78.64
68943;DHT22;60852;52.190;4.422;2022-08-16T07:01:26;22.81;79.39
68943;DHT22;60852;52.190;4.422;2022-08-16T07:03:52;23.01;79.32
68943;DHT22;60852;52.190;4.422;2022-08-16T07:06:19;23.08;78.72
68943;DHT22;60852;52.190;4.422;2022-08-16T07:08:47;23.27;78.16
68943;DHT22;60852;52.190;4.422;2022-08-16T07:11:15;23.29;78.14
68943;DHT22;60852;52.190;4.422;2022-08-16T07:13:41;23.33;77.70
68943;DHT22;60852;52.190;4.422;2022-08-16T07:16:08;23.30;77.16
68943;DHT22;60852;52.190;4.422;2022-08-16T07:18:39;23.02;77.78
68943;DHT22;60852;52.190;4.422;2022-08-16T07:21:07;22.91;78.45
68943;DHT22;60852;52.190;4.422;2022-08-16T07:23:34;22.96;78.53
68943;DHT22;60852;52.190;4.422;2022-08-16T07:26:01;22.87;78.18
68943;DHT22;60852;52.190;4.422;2022-08-16T07:28:26;22.84;78.86
68943;DHT22;60852;52.190;4.422;2022-08-16T07:30:51;22.81;78.92
68943;DHT22;60852;52.190;4.422;2022-08-16T07:33:17;22.81;78.77
68943;DHT22;60852;52.190;4.422;2022-08-16T07:35:43;22.94;78.90
68943;DHT22;60852;52.190;4.422;2022-08-16T07:38:09;22.87;78.85
68943;DHT22;60852;52.190;4.422;2022-08-16T07:40:36;22.85;78.66
68943;DHT22;60852;52.190;4.422;2022-08-16T07:43:03;22.75;78.93
68943;DHT22;60852;52.190;4.422;2022-08-16T07:45:28;22.76;78.99
68943;DHT22;60852;52.190;4.422;2022-08-16T07:47:54;22.95;78.47
68943;DHT22;60852;52.190;4.422;2022-08-16T07:50:20;22.98;78.13
68943;DHT22;60852;52.190;4.422;2022-08-16T07:52:46;23.03;78.24
68943;DHT22;60852;52.190;4.422;2022-08-16T07:55:15;23.11;77.63
68943;DHT22;60852;52.190;4.422;2022-08-16T07:57:41;23.08;78.07
68943;DHT22;60852;52.190;4.422;2022-08-16T08:00:08;23.30;77.80
68943;DHT22;60852;52.190;4.422;2022-08-16T08:02:36;23.30;77.17
68943;DHT22;60852;52.190;4.422;2022-08-16T08:05:03;23.27;76.36
68943;DHT22;60852;52.190;4.422;2022-08-16T08:07:29;23.29;76.93
68943;DHT22;60852;52.190;4.422;2022-08-16T08:09:55;23.36;76.82
68943;DHT22;60852;52.190;4.422;2022-08-16T08:12:21;23.33;77.43
68943;DHT22;60852;52.190;4.422;2022-08-16T08:14:47;23.38;77.38
68943;DHT22;60852;52.190;4.422;2022-08-16T08:17:14;23.53;77.11
68943;DHT22;60852;52.190;4.422;2022-08-16T08:19:39;23.71;76.63
68943;DHT22;60852;52.190;4.422;2022-08-16T08:22:05;23.74;76.17
68943;DHT22;60852;52.190;4.422;2022-08-16T08:24:32;23.87;75.92
68943;DHT22;60852;52.190;4.422;2022-08-16T08:27:00;23.96;75.12
68943;DHT22;60852;52.190;4.422;2022-08-16T08:29:26;24.04;74.87
68943;DHT22;60852;52.190;4.422;2022-08-16T08:31:52;24.10;74.48
68943;DHT22;60852;52.190;4.422;2022-08-16T08:34:17;24.19;74.09
68943;DHT22;60852;52.190;4.422;2022-08-16T08:36:43;24.25;73.88
68943;DHT22;60852;52.190;4.422;2022-08-16T08:39:08;24.35;74.26
68943;DHT22;60852;52.190;4.422;2022-08-16T08:41:34;24.31;73.74
68943;DHT22;60852;52.190;4.422;2022-08-16T08:44:00;24.38;74.22
68943;DHT22;60852;52.190;4.422;2022-08-16T08:46:26;24.48;74.06
68943;DHT22;60852;52.190;4.422;2022-08-16T08:48:54;24.49;73.31
68943;DHT22;60852;52.190;4.422;2022-08-16T08:51:20;24.55;73.92
68943;DHT22;60852;52.190;4.422;2022-08-16T08:53:46;24.56;73.89
68943;DHT22;60852;52.190;4.422;2022-08-16T08:56:12;24.60;73.02
68943;DHT22;60852;52.190;4.422;2022-08-16T08:58:38;24.72;73.13
68943;DHT22;60852;52.190;4.422;2022-08-16T09:01:06;24.70;72.70
68943;DHT22;60852;52.190;4.422;2022-08-16T09:03:33;24.62;72.53
68943;DHT22;60852;52.190;4.422;2022-08-16T09:05:59;24.58;72.12
68943;DHT22;60852;52.190;4.422;2022-08-16T09:08:25;24.69;72.13
68943;DHT22;60852;52.190;4.422;2022-08-16T09:10:53;24.75;72.30
68943;DHT22;60852;52.190;4.422;2022-08-16T09:13:21;24.73;72.37
68943;DHT22;60852;52.190;4.422;2022-08-16T09:15:46;24.69;72.37
68943;DHT22;60852;52.190;4.422;2022-08-16T09:18:14;24.72;72.02
68943;DHT22;60852;52.190;4.422;2022-08-16T09:20:40;24.76;72.21
68943;DHT22;60852;52.190;4.422;2022-08-16T09:23:07;24.76;72.06
68943;DHT22;60852;52.190;4.422;2022-08-16T09:25:33;24.86;72.40
68943;DHT22;60852;52.190;4.422;2022-08-16T09:27:59;24.87;72.27
68943;DHT22;60852;52.190;4.422;2022-08-16T09:30:26;24.60;72.25
68943;DHT22;60852;52.190;4.422;2022-08-16T09:32:51;24.41;72.31
68943;DHT22;60852;52.190;4.422;2022-08-16T09:35:20;24.52;72.42
68943;DHT22;60852;52.190;4.422;2022-08-16T09:37:46;24.43;72.63
68943;DHT22;60852;52.190;4.422;2022-08-16T09:40:11;24.48;72.76
68943;DHT22;60852;52.190;4.422;2022-08-16T09:42:37;24.48;73.43
68943;DHT22;60852;52.190;4.422;2022-08-16T09:45:04;24.60;73.18
68943;DHT22;60852;52.190;4.422;2022-08-16T09:47:34;24.79;73.01
68943;DHT22;60852;52.190;4.422;2022-08-16T09:50:08;24.90;72.62
68943;DHT22;60852;52.190;4.422;2022-08-16T09:52:35;25.07;72.59
68943;DHT22;60852;52.190;4.422;2022-08-16T09:55:04;25.27;72.19
68943;DHT22;60852;52.190;4.422;2022-08-16T09:57:30;25.42;71.46
68943;DHT22;60852;52.190;4.422;2022-08-16T09:59:55;25.42;71.19
68943;DHT22;60852;52.190;4.422;2022-08-16T10:02:21;25.65;71.15
68943;DHT22;60852;52.190;4.422;2022-08-16T10:04:48;25.79;70.35
68943;DHT22;60852;52.190;4.422;2022-08-16T10:07:14;25.96;69.50
68943;DHT22;60852;52.190;4.422;2022-08-16T10:09:39;26.15;68.76
68943;DHT22;60852;52.190;4.422;2022-08-16T10:12:05;26.27;68.09
68943;DHT22;60852;52.190;4.422;2022-08-16T10:14:49;26.46;67.52
68943;DHT22;60852;52.190;4.422;2022-08-16T10:17:14;26.58;67.00
68943;DHT22;60852;52.190;4.422;2022-08-16T10:19:41;26.67;66.78
68943;DHT22;60852;52.190;4.422;2022-08-16T10:22:06;26.73;66.21
68943;DHT22;60852;52.190;4.422;2022-08-16T10:24:32;26.68;66.53
68943;DHT22;60852;52.190;4.422;2022-08-16T10:26:58;26.65;66.34
68943;DHT22;60852;52.190;4.422;2022-08-16T10:29:24;26.54;66.48
68943;DHT22;60852;52.190;4.422;2022-08-16T10:31:49;26.47;66.88
68943;DHT22;60852;52.190;4.422;2022-08-16T10:34:14;26.39;66.77
68943;DHT22;60852;52.190;4.422;2022-08-16T10:36:40;26.29;67.19
68943;DHT22;60852;52.190;4.422;2022-08-16T10:39:06;26.25;67.01
68943;DHT22;60852;52.190;4.422;2022-08-16T10:41:32;26.20;67.24
68943;DHT22;60852;52.190;4.422;2022-08-16T10:43:57;26.13;67.23
68943;DHT22;60852;52.190;4.422;2022-08-16T10:46:23;26.15;66.36
68943;DHT22;60852;52.190;4.422;2022-08-16T10:48:49;26.00;66.90
68943;DHT22;60852;52.190;4.422;2022-08-16T10:51:15;25.86;67.75
68943;DHT22;60852;52.190;4.422;2022-08-16T10:53:41;25.88;68.29
68943;DHT22;60852;52.190;4.422;2022-08-16T10:56:10;25.86;68.82
68943;DHT22;60852;52.190;4.422;2022-08-16T10:58:38;25.84;69.32
68943;DHT22;60852;52.190;4.422;2022-08-16T11:01:08;25.92;69.64
68943;DHT22;60852;52.190;4.422;2022-08-16T11:03:35;25.95;69.15
68943;DHT22;60852;52.190;4.422;2022-08-16T11:06:02;25.82;69.61
68943;DHT22;60852;52.190;4.422;2022-08-16T11:08:29;25.89;69.41
68943;DHT22;60852;52.190;4.422;2022-08-16T11:10:55;25.74;69.31
68943;DHT22;60852;52.190;4.422;2022-08-16T11:13:23;25.57;70.65
68943;DHT22;60852;52.190;4.422;2022-08-16T11:15:50;25.55;70.95
68943;DHT22;60852;52.190;4.422;2022-08-16T11:18:16;25.65;70.81
68943;DHT22;60852;52.190;4.422;2022-08-16T11:20:42;25.78;70.51
68943;DHT22;60852;52.190;4.422;2022-08-16T11:23:09;25.69;70.51
68943;DHT22;60852;52.190;4.422;2022-08-16T11:25:36;25.74;70.70
68943;DHT22;60852;52.190;4.422;2022-08-16T11:28:02;25.90;69.65
68943;DHT22;60852;52.190;4.422;2022-08-16T11:30:30;26.16;68.76
68943;DHT22;60852;52.190;4.422;2022-08-16T11:32:56;26.29;68.18
68943;DHT22;60852;52.190;4.422;2022-08-16T11:35:24;26.37;67.85
68943;DHT22;60852;52.190;4.422;2022-08-16T11:37:59;26.39;67.50
68943;DHT22;60852;52.190;4.422;2022-08-16T11:40:28;26.39;67.50
68943;DHT22;60852;52.190;4.422;2022-08-16T11:42:56;26.53;67.15
68943;DHT22;60852;52.190;4.422;2022-08-16T11:45:22;26.47;67.11
68943;DHT22;60852;52.190;4.422;2022-08-16T11:47:48;26.54;66.34
68943;DHT22;60852;52.190;4.422;2022-08-16T11:50:14;26.60;65.84
68943;DHT22;60852;52.190;4.422;2022-08-16T11:52:40;26.50;66.68
68943;DHT22;60852;52.190;4.422;2022-08-16T11:55:09;26.50;66.43
68943;DHT22;60852;52.190;4.422;2022-08-16T11:57:35;26.47;66.34
68943;DHT22;60852;52.190;4.422;2022-08-16T12:00:04;26.15;66.34
68943;DHT22;60852;52.190;4.422;2022-08-16T12:02:30;25.98;66.74
68943;DHT22;60852;52.190;4.422;2022-08-16T12:04:56;25.79;67.66
68943;DHT22;60852;52.190;4.422;2022-08-16T12:07:21;25.90;67.63
68943;DHT22;60852;52.190;4.422;2022-08-16T12:09:47;25.95;68.03
68943;DHT22;60852;52.190;4.422;2022-08-16T12:12:13;25.92;67.81
68943;DHT22;60852;52.190;4.422;2022-08-16T12:14:38;25.95;68.24
68943;DHT22;60852;52.190;4.422;2022-08-16T12:17:05;25.96;68.47
68943;DHT22;60852;52.190;4.422;2022-08-16T12:19:31;25.93;68.30
68943;DHT22;60852;52.190;4.422;2022-08-16T12:21:57;25.98;68.91
68943;DHT22;60852;52.190;4.422;2022-08-16T12:24:24;25.99;69.00
68943;DHT22;60852;52.190;4.422;2022-08-16T12:26:51;25.96;69.05
68943;DHT22;60852;52.190;4.422;2022-08-16T12:29:17;26.05;68.33
68943;DHT22;60852;52.190;4.422;2022-08-16T12:31:44;26.02;67.65
68943;DHT22;60852;52.190;4.422;2022-08-16T12:34:10;25.86;68.70
68943;DHT22;60852;52.190;4.422;2022-08-16T12:36:36;25.85;69.27
68943;DHT22;60852;52.190;4.422;2022-08-16T12:39:07;25.95;68.44
68943;DHT22;60852;52.190;4.422;2022-08-16T12:41:33;25.92;68.07
68943;DHT22;60852;52.190;4.422;2022-08-16T12:44:03;25.98;67.99
68943;DHT22;60852;52.190;4.422;2022-08-16T12:46:28;25.96;68.57
68943;DHT22;60852;52.190;4.422;2022-08-16T12:48:54;25.99;68.49
68943;DHT22;60852;52.190;4.422;2022-08-16T12:51:33;26.12;68.62
68943;DHT22;60852;52.190;4.422;2022-08-16T12:54:01;26.16;65.99
68943;DHT22;60852;52.190;4.422;2022-08-16T12:56:31;25.98;65.96
68943;DHT22;60852;52.190;4.422;2022-08-16T12:58:59;25.82;67.88
68943;DHT22;60852;52.190;4.422;2022-08-16T13:01:32;26.02;68.31
68943;DHT22;60852;52.190;4.422;2022-08-16T13:04:00;26.22;66.31
68943;DHT22;60852;52.190;4.422;2022-08-16T13:06:27;26.36;66.67
68943;DHT22;60852;52.190;4.422;2022-08-16T13:08:54;26.50;65.37
68943;DHT22;60852;52.190;4.422;2022-08-16T13:11:33;26.60;64.03
68943;DHT22;60852;52.190;4.422;2022-08-16T13:13:59;26.63;63.05
68943;DHT22;60852;52.190;4.422;2022-08-16T13:16:25;26.70;64.46
68943;DHT22;60852;52.190;4.422;2022-08-16T13:18:50;26.88;63.92
68943;DHT22;60852;52.190;4.422;2022-08-16T13:21:16;26.83;63.32
68943;DHT22;60852;52.190;4.422;2022-08-16T13:23:41;26.78;63.16
68943;DHT22;60852;52.190;4.422;2022-08-16T13:26:07;26.73;63.47
68943;DHT22;60852;52.190;4.422;2022-08-16T13:28:32;26.63;64.23
68943;DHT22;60852;52.190;4.422;2022-08-16T13:30:59;26.50;63.58
68943;DHT22;60852;52.190;4.422;2022-08-16T13:33:31;26.68;62.41
68943;DHT22;60852;52.190;4.422;2022-08-16T13:36:07;26.78;64.06
68943;DHT22;60852;52.190;4.422;2022-08-16T13:38:33;26.87;62.90
68943;DHT22;60852;52.190;4.422;2022-08-16T13:41:00;26.80;62.67
68943;DHT22;60852;52.190;4.422;2022-08-16T13:43:29;26.68;64.23
68943;DHT22;60852;52.190;4.422;2022-08-16T13:45:56;26.48;64.88
68943;DHT22;60852;52.190;4.422;2022-08-16T13:48:23;26.44;64.78
68943;DHT22;60852;52.190;4.422;2022-08-16T13:50:49;26.35;66.08
68943;DHT22;60852;52.190;4.422;2022-08-16T13:53:15;26.32;66.47
68943;DHT22;60852;52.190;4.422;2022-08-16T13:55:40;26.15;67.16
68943;DHT22;60852;52.190;4.422;2022-08-16T13:58:05;26.12;67.04
68943;DHT22;60852;52.190;4.422;2022-08-16T14:00:31;25.96;66.82
68943;DHT22;60852;52.190;4.422;2022-08-16T14:02:58;25.92;67.35
68943;DHT22;60852;52.190;4.422;2022-08-16T14:05:24;26.06;67.32
68943;DHT22;60852;52.190;4.422;2022-08-16T14:07:49;26.00;66.87
68943;DHT22;60852;52.190;4.422;2022-08-16T14:10:15;25.86;67.80
68943;DHT22;60852;52.190;4.422;2022-08-16T14:12:40;25.84;68.08
68943;DHT22;60852;52.190;4.422;2022-08-16T14:15:09;25.98;68.19
68943;DHT22;60852;52.190;4.422;2022-08-16T14:17:35;25.95;67.42
68943;DHT22;60852;52.190;4.422;2022-08-16T14:20:01;25.79;68.14
68943;DHT22;60852;52.190;4.422;2022-08-16T14:22:30;25.76;67.51
68943;DHT22;60852;52.190;4.422;2022-08-16T14:24:58;25.82;67.13
68943;DHT22;60852;52.190;4.422;2022-08-16T14:27:28;25.99;67.93
68943;DHT22;60852;52.190;4.422;2022-08-16T14:29:55;26.00;66.22
68943;DHT22;60852;52.190;4.422;2022-08-16T14:32:24;25.99;67.12
68943;DHT22;60852;52.190;4.422;2022-08-16T14:34:51;25.85;65.84
68943;DHT22;60852;52.190;4.422;2022-08-16T14:37:16;25.86;66.79
68943;DHT22;60852;52.190;4.422;2022-08-16T14:39:42;25.84;65.22
68943;DHT22;60852;52.190;4.422;2022-08-16T14:42:15;25.90;66.76
68943;DHT22;60852;52.190;4.422;2022-08-16T14:44:43;25.82;65.80
68943;DHT22;60852;52.190;4.422;2022-08-16T14:47:09;25.76;66.02
68943;DHT22;60852;52.190;4.422;2022-08-16T14:49:35;25.68;66.62
68943;DHT22;60852;52.190;4.422;2022-08-16T14:52:04;25.68;67.22
68943;DHT22;60852;52.190;4.422;2022-08-16T14:54:31;25.74;67.43
68943;DHT22;60852;52.190;4.422;2022-08-16T14:56:56;25.65;66.78
68943;DHT22;60852;52.190;4.422;2022-08-16T14:59:23;25.52;68.08
68943;DHT22;60852;52.190;4.422;2022-08-16T15:01:50;25.31;68.29
68943;DHT22;60852;52.190;4.422;2022-08-16T15:04:15;25.39;67.98
68943;DHT22;60852;52.190;4.422;2022-08-16T15:06:41;25.48;67.79
68943;DHT22;60852;52.190;4.422;2022-08-16T15:09:06;25.57;68.51
68943;DHT22;60852;52.190;4.422;2022-08-16T15:11:32;25.67;67.83
68943;DHT22;60852;52.190;4.422;2022-08-16T15:13:57;25.71;67.21
68943;DHT22;60852;52.190;4.422;2022-08-16T15:16:23;25.72;66.99
68943;DHT22;60852;52.190;4.422;2022-08-16T15:18:48;25.72;67.69
68943;DHT22;60852;52.190;4.422;2022-08-16T15:21:14;25.65;67.91
68943;DHT22;60852;52.190;4.422;2022-08-16T15:23:40;25.61;68.49
68943;DHT22;60852;52.190;4.422;2022-08-16T15:26:06;25.64;68.60
68943;DHT22;60852;52.190;4.422;2022-08-16T15:28:33;25.69;67.96
68943;DHT22;60852;52.190;4.422;2022-08-16T15:31:07;25.72;67.15